• Join FlightAware (Why Join?)
  • Login
  • US Flag 
05:42AM EDT


 

Airport Tracker/Info


-or-


 

Live Flight TrackerFlight Track Log ✈ SKW4473 ✈ 21-Apr-2013 ✈ KHLN - KSLC

Flight Track Log - Related Links

Times and Time Zones

All times are in EDT time to prevent confusion due to time zone crossing. See the SKW4473 flight status page for this flight to view local times or setup timezone preferences in your user account.

Time Position Orientation Groundspeed Altitude Reporting Facility
EDT Latitude Longitude Course Direction KTS MPH feet Rate Location/Type
03:04PM 46.0164 -111.3831 145° Southeast  Level FlightAware Approximate
03:05PM 45.9326 -111.2992 145° Southeast  Level FlightAware Approximate
03:05PM 46.6503 -112.0136 148° Southeast 261 300 14,900  Level Salt Lake Center
03:06PM 45.8488 -111.2154 145° Southeast  Level FlightAware Approximate
03:06PM 46.5853 -111.9675 154° Southeast 271 312 17,000  Level Salt Lake Center
03:07PM 45.7616 -111.1573 193° South  Level FlightAware Approximate
03:07PM 46.5072 -111.9714 182° South 282 325 18,500  Level Salt Lake Center
03:08PM 45.6666 -111.2097 204° Southwest  Level FlightAware Approximate
03:08PM 46.4161 -111.9703 180° South 310 357 20,000  Level Salt Lake Center
03:09PM 45.5735 -111.2695 204° Southwest  Level FlightAware Approximate
03:09PM 46.3169 -111.9722 181° South 350 403 21,300  Level Salt Lake Center
03:10PM 46.1942 -111.9725 180° South 368 423 23,000 1,500 Climbing Salt Lake Center
03:11PM 46.0892 -111.9725 180° South 377 434 24,400 1,320 Climbing Salt Lake Center
03:12PM 45.9825 -111.9747 181° South 384 442 25,800 1,200 Climbing Salt Lake Center
03:13PM 45.8764 -111.9753 180° South 383 441 26,900 960 Climbing Salt Lake Center
03:14PM 45.7694 -111.9767 181° South 386 444 27,900 960 Climbing Salt Lake Center
03:15PM 45.6619 -111.9761 180° South 387 445 28,900 1,020 Climbing Salt Lake Center
03:16PM 45.5297 -111.9783 181° South 396 456 30,100 900 Climbing Salt Lake Center
03:17PM 45.4183 -111.9778 180° South 399 459 30,800 420 Climbing Salt Lake Center
03:18PM 45.3053 -111.9783 180° South 406 467 31,000 60 Climbing Salt Lake Center
03:19PM 45.1842 -111.9800 181° South 427 491 31,000  Level Salt Lake Center
03:20PM 45.0511 -111.9817 181° South 448 516 31,000  Level Salt Lake Center
03:21PM 44.9092 -111.9825 180° South 457 526 31,000  Level Salt Lake Center
03:22PM 44.7889 -111.9844 181° South 455 524 31,000  Level Salt Lake Center
03:23PM 44.6700 -111.9861 181° South 450 518 31,000  Level Salt Lake Center
03:24PM 44.5342 -111.9861 180° South 442 509 31,000  Level Salt Lake Center
03:26PM 44.4211 -111.9867 180° South 432 497 31,000  Level Salt Lake Center
03:27PM 44.2900 -111.9883 181° South 426 490 31,000  Level Salt Lake Center
03:28PM 44.1797 -111.9892 180° South 420 483 31,000  Level Salt Lake Center
03:29PM 44.0522 -111.9917 181° South 414 476 31,000  Level Salt Lake Center
03:30PM 43.9406 -111.9919 180° South 417 480 31,000  Level Salt Lake Center
03:31PM 43.8128 -111.9931 180° South 413 475 31,000  Level Salt Lake Center
03:32PM 43.7033 -111.9933 180° South 413 475 31,000  Level Salt Lake Center
03:33PM 43.5758 -111.9942 180° South 410 472 31,000  Level Salt Lake Center
03:34PM 43.4653 -111.9967 181° South 415 478 31,000  Level Salt Lake Center
03:35PM 43.3539 -111.9961 180° South 418 481 31,000  Level Salt Lake Center
03:36PM 43.2231 -111.9972 180° South 420 483 31,000  Level Salt Lake Center
03:37PM 43.1094 -111.9981 180° South 426 490 31,000  Level Salt Lake Center
03:38PM 42.9747 -112.0014 181° South 433 498 31,000 -300 Level Salt Lake Center
03:39PM 42.8594 -112.0011 180° South 433 498 30,500 -540 Descending Salt Lake Center
03:40PM 42.7219 -112.0022 180° South 442 509 30,000 -300 Descending Salt Lake Center
03:41PM 42.6100 -112.0039 181° South 441 507 30,000  Level Salt Lake Center
03:42PM 42.4903 -112.0042 180° South 432 497 30,000  Level Salt Lake Center
03:43PM 42.3706 -112.0044 180° South 431 496 30,000  Level Salt Lake Center
03:44PM 42.2294 -112.0067 181° South 425 489 30,000  Level Salt Lake Center
03:45PM 42.1103 -112.0069 180° South 428 493 30,000 -1,320 Level Salt Lake Center
03:46PM 41.9878 -112.0089 181° South 442 509 27,400 -2,580 Descending Salt Lake Center
03:47PM 41.8647 -112.0111 181° South 445 512 24,800 -2,400 Descending Salt Lake Center
03:48PM 41.7525 -112.0153 182° South 409 471 22,500 -2,280 Descending Salt Lake Center
03:49PM 41.6481 -112.0336 187° South 378 435 20,200 -1,980 Descending Salt Lake Center
03:50PM 41.5444 -112.0436 184° South 373 429 18,700 -1,440 Descending Salt Lake Center
03:51PM 41.4325 -112.0647 188° South 344 396 17,400 -1,200 Descending Salt Lake Center
03:52PM 41.3436 -112.0892 192° South 312 359 16,200 -1,140 Descending Salt Lake Center
03:53PM 41.2597 -112.1067 189° South 318 366 15,200 -1,080 Descending Salt Lake Center
03:54PM 41.1739 -112.1256 189° South 308 354 14,000 -1,260 Descending Salt Lake Center
03:55PM 41.1006 -112.1406 189° South 300 345 12,800 -1,320 Descending Salt Lake Center
03:56PM 41.0153 -112.1328 176° South 305 351 11,600 -840 Descending Salt Lake Center
03:57PM 40.9128 -112.1122 171° South 298 343 11,000 -360 Descending Salt Lake Center
03:58PM 40.8572 -112.1067 176° South 259 298 10,900 -480 Descending Salt Lake Center
03:59PM 40.7869 -112.0992 175° South 243 280 10,200 -900 Descending Salt Lake Center
04:00PM 40.7147 -112.0925 176° South 237 273 9,100 -600 Descending Salt Lake Center
04:01PM 40.6464 -112.0844 175° South 240 276 9,000 -180 Descending Salt Lake Center
04:02PM 40.6178 -112.0264 123° Southeast 250 288 8,800 -480 Descending Salt Lake Center
04:02PM 40.6228 -112.0094 69° East 247 284 8,500 -1,140 Descending Salt Lake Center